Bitahochee, Arizona
Current Conditions -  °F | °C
As of 7:56 AM on Thursday 18 Dec 2014 (Local Time) from KINW Reporting Station
Scattered Clouds Scattered Clouds  
Wind Chill: 25°   Ceiling: Unl
Heat Index: 31°   Visibility: 10mi
Dew Point: 28°   Wind: 6mph
Humidity: 89%   Direction: 120°ESE
Pressure: 30.13"   Gusts: NA
Location:  35.4077°N, 110.085°W
Report Text: KINW 181456Z AUTO 12005KT 10SM FEW029 SCT120 M01/M02 A3013 RMK AO2 SLP211 T10061022 53013
Loading
Personal Weather Stations






























Interactive Weather Map New forecast layout! Learn more

10-Day Weather Forecast

Advertisements
Track Severe Weather on mobile